sensor_id;sensor_type;location;lat;lon;timestamp;P1;durP1;ratioP1;P2;durP2;ratioP2
23986;SDS011;12514;52.140;5.602;2022-08-19T00:01:22;9.18;;;8.48;;
23986;SDS011;12514;52.140;5.602;2022-08-19T00:03:48;9.57;;;8.65;;
23986;SDS011;12514;52.140;5.602;2022-08-19T00:09:35;8.25;;;7.70;;
23986;SDS011;12514;52.140;5.602;2022-08-19T00:12:01;8.45;;;7.85;;
23986;SDS011;12514;52.140;5.602;2022-08-19T00:14:27;9.55;;;8.20;;
23986;SDS011;12514;52.140;5.602;2022-08-19T00:16:56;9.50;;;8.80;;
23986;SDS011;12514;52.140;5.602;2022-08-19T00:19:22;8.18;;;7.68;;
23986;SDS011;12514;52.140;5.602;2022-08-19T00:21:48;8.30;;;7.70;;
23986;SDS011;12514;52.140;5.602;2022-08-19T00:24:14;8.25;;;7.65;;
23986;SDS011;12514;52.140;5.602;2022-08-19T00:26:41;8.25;;;7.72;;
23986;SDS011;12514;52.140;5.602;2022-08-19T00:29:08;8.18;;;7.63;;
23986;SDS011;12514;52.140;5.602;2022-08-19T00:31:36;9.10;;;8.45;;
23986;SDS011;12514;52.140;5.602;2022-08-19T00:34:02;8.48;;;7.70;;
23986;SDS011;12514;52.140;5.602;2022-08-19T00:39:50;7.93;;;7.53;;
23986;SDS011;12514;52.140;5.602;2022-08-19T00:42:16;8.70;;;8.10;;
23986;SDS011;12514;52.140;5.602;2022-08-19T00:44:44;8.20;;;7.70;;
23986;SDS011;12514;52.140;5.602;2022-08-19T00:47:10;8.40;;;7.80;;
23986;SDS011;12514;52.140;5.602;2022-08-19T00:52:07;8.40;;;7.90;;
23986;SDS011;12514;52.140;5.602;2022-08-19T00:54:37;8.98;;;8.07;;
23986;SDS011;12514;52.140;5.602;2022-08-19T00:57:05;7.55;;;7.15;;
23986;SDS011;12514;52.140;5.602;2022-08-19T00:59:36;9.00;;;8.20;;
23986;SDS011;12514;52.140;5.602;2022-08-19T01:02:04;8.27;;;7.55;;
23986;SDS011;12514;52.140;5.602;2022-08-19T01:04:30;8.75;;;7.95;;
23986;SDS011;12514;52.140;5.602;2022-08-19T01:06:56;7.68;;;7.18;;
23986;SDS011;12514;52.140;5.602;2022-08-19T01:09:22;8.73;;;7.97;;
23986;SDS011;12514;52.140;5.602;2022-08-19T01:11:48;8.80;;;8.10;;
23986;SDS011;12514;52.140;5.602;2022-08-19T01:14:14;7.97;;;7.32;;
23986;SDS011;12514;52.140;5.602;2022-08-19T01:16:41;7.82;;;7.38;;
23986;SDS011;12514;52.140;5.602;2022-08-19T01:19:12;8.50;;;7.93;;
23986;SDS011;12514;52.140;5.602;2022-08-19T01:25:43;8.55;;;7.95;;
23986;SDS011;12514;52.140;5.602;2022-08-19T01:28:22;8.57;;;7.63;;
23986;SDS011;12514;52.140;5.602;2022-08-19T01:30:51;8.80;;;8.20;;
23986;SDS011;12514;52.140;5.602;2022-08-19T01:33:17;9.10;;;8.50;;
23986;SDS011;12514;52.140;5.602;2022-08-19T01:35:44;8.85;;;8.13;;
23986;SDS011;12514;52.140;5.602;2022-08-19T01:38:19;8.32;;;7.82;;
23986;SDS011;12514;52.140;5.602;2022-08-19T01:40:47;9.13;;;8.13;;
23986;SDS011;12514;52.140;5.602;2022-08-19T01:43:12;8.55;;;8.05;;
23986;SDS011;12514;52.140;5.602;2022-08-19T01:45:38;8.18;;;7.75;;
23986;SDS011;12514;52.140;5.602;2022-08-19T01:48:05;8.85;;;8.13;;
23986;SDS011;12514;52.140;5.602;2022-08-19T01:50:31;8.50;;;7.90;;
23986;SDS011;12514;52.140;5.602;2022-08-19T01:52:58;8.55;;;7.93;;
23986;SDS011;12514;52.140;5.602;2022-08-19T01:55:25;8.35;;;7.80;;
23986;SDS011;12514;52.140;5.602;2022-08-19T01:57:52;8.73;;;8.07;;
23986;SDS011;12514;52.140;5.602;2022-08-19T02:00:22;8.60;;;7.90;;
23986;SDS011;12514;52.140;5.602;2022-08-19T02:02:50;9.80;;;8.90;;
23986;SDS011;12514;52.140;5.602;2022-08-19T02:05:16;9.35;;;8.57;;
23986;SDS011;12514;52.140;5.602;2022-08-19T02:07:45;9.13;;;8.30;;
23986;SDS011;12514;52.140;5.602;2022-08-19T02:10:13;8.50;;;8.00;;
23986;SDS011;12514;52.140;5.602;2022-08-19T02:12:46;8.23;;;7.70;;
23986;SDS011;12514;52.140;5.602;2022-08-19T02:15:12;9.02;;;8.30;;
23986;SDS011;12514;52.140;5.602;2022-08-19T02:17:38;8.50;;;7.90;;
23986;SDS011;12514;52.140;5.602;2022-08-19T02:20:05;8.30;;;7.60;;
23986;SDS011;12514;52.140;5.602;2022-08-19T02:22:31;8.80;;;8.10;;
23986;SDS011;12514;52.140;5.602;2022-08-19T02:24:57;8.27;;;7.78;;
23986;SDS011;12514;52.140;5.602;2022-08-19T02:27:23;8.70;;;8.18;;
23986;SDS011;12514;52.140;5.602;2022-08-19T02:29:49;9.27;;;8.57;;
23986;SDS011;12514;52.140;5.602;2022-08-19T02:32:15;9.13;;;8.27;;
23986;SDS011;12514;52.140;5.602;2022-08-19T02:34:43;9.05;;;8.25;;
23986;SDS011;12514;52.140;5.602;2022-08-19T02:37:09;8.68;;;7.90;;
23986;SDS011;12514;52.140;5.602;2022-08-19T02:39:54;8.30;;;7.80;;
23986;SDS011;12514;52.140;5.602;2022-08-19T02:42:20;9.27;;;8.63;;
23986;SDS011;12514;52.140;5.602;2022-08-19T02:44:46;9.27;;;8.68;;
23986;SDS011;12514;52.140;5.602;2022-08-19T02:47:11;9.70;;;8.82;;
23986;SDS011;12514;52.140;5.602;2022-08-19T02:49:39;8.98;;;8.35;;
23986;SDS011;12514;52.140;5.602;2022-08-19T02:52:04;9.55;;;8.75;;
23986;SDS011;12514;52.140;5.602;2022-08-19T02:54:30;9.45;;;8.70;;
23986;SDS011;12514;52.140;5.602;2022-08-19T02:56:56;9.02;;;8.43;;
23986;SDS011;12514;52.140;5.602;2022-08-19T02:59:21;9.30;;;8.50;;
23986;SDS011;12514;52.140;5.602;2022-08-19T03:01:47;9.73;;;9.02;;
23986;SDS011;12514;52.140;5.602;2022-08-19T03:04:13;10.18;;;8.70;;
23986;SDS011;12514;52.140;5.602;2022-08-19T03:10:03;8.73;;;8.07;;
23986;SDS011;12514;52.140;5.602;2022-08-19T03:12:29;8.57;;;8.02;;
23986;SDS011;12514;52.140;5.602;2022-08-19T03:14:55;9.23;;;8.52;;
23986;SDS011;12514;52.140;5.602;2022-08-19T03:17:21;9.45;;;8.82;;
23986;SDS011;12514;52.140;5.602;2022-08-19T03:19:46;8.68;;;8.05;;
23986;SDS011;12514;52.140;5.602;2022-08-19T03:22:12;9.68;;;8.85;;
23986;SDS011;12514;52.140;5.602;2022-08-19T03:24:37;8.85;;;8.30;;
23986;SDS011;12514;52.140;5.602;2022-08-19T03:27:03;9.05;;;8.32;;
23986;SDS011;12514;52.140;5.602;2022-08-19T03:29:30;9.68;;;8.82;;
23986;SDS011;12514;52.140;5.602;2022-08-19T03:31:59;8.68;;;8.13;;
23986;SDS011;12514;52.140;5.602;2022-08-19T03:34:30;8.50;;;7.97;;
23986;SDS011;12514;52.140;5.602;2022-08-19T03:40:19;8.65;;;8.15;;
23986;SDS011;12514;52.140;5.602;2022-08-19T03:42:44;9.73;;;9.05;;
23986;SDS011;12514;52.140;5.602;2022-08-19T03:45:11;9.38;;;8.70;;
23986;SDS011;12514;52.140;5.602;2022-08-19T03:47:37;9.90;;;9.15;;
23986;SDS011;12514;52.140;5.602;2022-08-19T03:50:03;9.65;;;8.95;;
23986;SDS011;12514;52.140;5.602;2022-08-19T03:52:29;11.02;;;10.23;;
23986;SDS011;12514;52.140;5.602;2022-08-19T03:54:55;11.02;;;10.23;;
23986;SDS011;12514;52.140;5.602;2022-08-19T03:57:20;11.25;;;10.15;;
23986;SDS011;12514;52.140;5.602;2022-08-19T03:59:46;11.30;;;10.40;;
23986;SDS011;12514;52.140;5.602;2022-08-19T04:02:12;10.95;;;9.93;;
23986;SDS011;12514;52.140;5.602;2022-08-19T04:04:38;12.07;;;10.93;;
23986;SDS011;12514;52.140;5.602;2022-08-19T04:10:27;11.82;;;10.65;;
23986;SDS011;12514;52.140;5.602;2022-08-19T04:12:53;10.40;;;9.65;;
23986;SDS011;12514;52.140;5.602;2022-08-19T04:15:18;10.55;;;9.65;;
23986;SDS011;12514;52.140;5.602;2022-08-19T04:17:45;10.85;;;9.55;;
23986;SDS011;12514;52.140;5.602;2022-08-19T04:20:11;10.38;;;9.48;;
23986;SDS011;12514;52.140;5.602;2022-08-19T04:22:36;10.02;;;9.30;;
23986;SDS011;12514;52.140;5.602;2022-08-19T04:25:02;9.82;;;8.85;;
23986;SDS011;12514;52.140;5.602;2022-08-19T04:27:28;9.63;;;8.80;;
23986;SDS011;12514;52.140;5.602;2022-08-19T04:29:54;9.75;;;9.05;;
23986;SDS011;12514;52.140;5.602;2022-08-19T04:32:20;8.75;;;8.15;;
23986;SDS011;12514;52.140;5.602;2022-08-19T04:34:46;8.43;;;7.63;;
23986;SDS011;12514;52.140;5.602;2022-08-19T04:40:34;7.53;;;6.93;;
23986;SDS011;12514;52.140;5.602;2022-08-19T04:43:27;6.97;;;6.57;;
23986;SDS011;12514;52.140;5.602;2022-08-19T04:45:53;7.38;;;6.78;;
23986;SDS011;12514;52.140;5.602;2022-08-19T04:48:19;9.70;;;6.80;;
23986;SDS011;12514;52.140;5.602;2022-08-19T04:50:50;6.88;;;6.28;;
23986;SDS011;12514;52.140;5.602;2022-08-19T04:53:26;7.53;;;6.93;;
23986;SDS011;12514;52.140;5.602;2022-08-19T04:55:53;6.68;;;6.18;;
23986;SDS011;12514;52.140;5.602;2022-08-19T04:58:23;7.50;;;6.78;;
23986;SDS011;12514;52.140;5.602;2022-08-19T05:00:51;7.53;;;6.72;;
23986;SDS011;12514;52.140;5.602;2022-08-19T05:03:17;7.75;;;7.25;;
23986;SDS011;12514;52.140;5.602;2022-08-19T05:05:44;6.90;;;6.30;;
23986;SDS011;12514;52.140;5.602;2022-08-19T05:08:13;7.00;;;6.38;;
23986;SDS011;12514;52.140;5.602;2022-08-19T05:10:44;6.90;;;6.40;;
23986;SDS011;12514;52.140;5.602;2022-08-19T05:13:13;7.32;;;6.65;;
23986;SDS011;12514;52.140;5.602;2022-08-19T05:15:39;7.93;;;7.32;;
23986;SDS011;12514;52.140;5.602;2022-08-19T05:18:05;7.78;;;6.90;;
23986;SDS011;12514;52.140;5.602;2022-08-19T05:20:49;8.65;;;7.55;;
23986;SDS011;12514;52.140;5.602;2022-08-19T05:23:33;8.80;;;8.10;;
23986;SDS011;12514;52.140;5.602;2022-08-19T05:25:59;8.50;;;7.95;;
23986;SDS011;12514;52.140;5.602;2022-08-19T05:28:24;6.85;;;6.40;;
23986;SDS011;12514;52.140;5.602;2022-08-19T05:30:50;6.82;;;6.15;;
23986;SDS011;12514;52.140;5.602;2022-08-19T05:33:16;6.78;;;6.22;;
23986;SDS011;12514;52.140;5.602;2022-08-19T05:35:43;6.35;;;6.03;;
23986;SDS011;12514;52.140;5.602;2022-08-19T05:38:09;8.02;;;7.32;;
23986;SDS011;12514;52.140;5.602;2022-08-19T05:40:36;7.38;;;6.85;;
23986;SDS011;12514;52.140;5.602;2022-08-19T05:43:04;13.60;;;8.48;;
23986;SDS011;12514;52.140;5.602;2022-08-19T05:45:30;12.63;;;11.13;;
23986;SDS011;12514;52.140;5.602;2022-08-19T05:47:56;12.85;;;11.82;;
23986;SDS011;12514;52.140;5.602;2022-08-19T05:50:23;15.77;;;14.07;;
23986;SDS011;12514;52.140;5.602;2022-08-19T05:56:54;17.02;;;14.90;;
23986;SDS011;12514;52.140;5.602;2022-08-19T05:59:19;20.50;;;17.67;;
23986;SDS011;12514;52.140;5.602;2022-08-19T06:01:46;25.10;;;19.38;;
23986;SDS011;12514;52.140;5.602;2022-08-19T06:04:19;28.98;;;19.30;;
23986;SDS011;12514;52.140;5.602;2022-08-19T06:06:46;24.13;;;18.48;;
23986;SDS011;12514;52.140;5.602;2022-08-19T06:09:13;25.88;;;20.63;;
23986;SDS011;12514;52.140;5.602;2022-08-19T06:11:44;28.85;;;20.23;;
23986;SDS011;12514;52.140;5.602;2022-08-19T06:14:13;32.92;;;21.08;;
23986;SDS011;12514;52.140;5.602;2022-08-19T06:16:41;33.55;;;22.52;;
23986;SDS011;12514;52.140;5.602;2022-08-19T06:19:10;31.17;;;23.40;;
23986;SDS011;12514;52.140;5.602;2022-08-19T06:21:39;31.02;;;22.60;;
23986;SDS011;12514;52.140;5.602;2022-08-19T06:24:07;35.20;;;23.50;;
23986;SDS011;12514;52.140;5.602;2022-08-19T06:26:35;35.83;;;24.27;;
23986;SDS011;12514;52.140;5.602;2022-08-19T06:29:03;35.95;;;23.42;;
23986;SDS011;12514;52.140;5.602;2022-08-19T06:31:31;37.90;;;25.33;;
23986;SDS011;12514;52.140;5.602;2022-08-19T06:33:59;40.70;;;25.65;;
23986;SDS011;12514;52.140;5.602;2022-08-19T06:36:31;46.10;;;27.58;;
23986;SDS011;12514;52.140;5.602;2022-08-19T06:39:00;53.50;;;28.90;;
23986;SDS011;12514;52.140;5.602;2022-08-19T06:41:27;55.90;;;31.35;;
23986;SDS011;12514;52.140;5.602;2022-08-19T06:43:54;55.63;;;30.85;;
23986;SDS011;12514;52.140;5.602;2022-08-19T06:46:20;62.40;;;31.33;;
23986;SDS011;12514;52.140;5.602;2022-08-19T06:48:46;57.53;;;31.80;;
23986;SDS011;12514;52.140;5.602;2022-08-19T06:51:16;56.90;;;31.58;;
23986;SDS011;12514;52.140;5.602;2022-08-19T06:53:45;60.42;;;33.47;;
23986;SDS011;12514;52.140;5.602;2022-08-19T06:56:16;58.35;;;33.72;;
23986;SDS011;12514;52.140;5.602;2022-08-19T06:58:45;60.47;;;34.15;;
23986;SDS011;12514;52.140;5.602;2022-08-19T07:01:13;58.75;;;33.92;;
23986;SDS011;12514;52.140;5.602;2022-08-19T07:03:38;58.05;;;32.85;;
23986;SDS011;12514;52.140;5.602;2022-08-19T07:06:06;58.88;;;34.55;;
23986;SDS011;12514;52.140;5.602;2022-08-19T07:08:34;56.28;;;33.25;;
23986;SDS011;12514;52.140;5.602;2022-08-19T07:11:01;55.17;;;32.38;;
23986;SDS011;12514;52.140;5.602;2022-08-19T07:13:31;55.40;;;34.17;;
23986;SDS011;12514;52.140;5.602;2022-08-19T07:16:04;52.72;;;34.35;;
23986;SDS011;12514;52.140;5.602;2022-08-19T07:18:31;54.85;;;35.50;;
23986;SDS011;12514;52.140;5.602;2022-08-19T07:21:05;53.75;;;36.40;;
23986;SDS011;12514;52.140;5.602;2022-08-19T07:23:32;53.90;;;35.38;;
23986;SDS011;12514;52.140;5.602;2022-08-19T07:25:58;56.70;;;36.53;;
23986;SDS011;12514;52.140;5.602;2022-08-19T07:28:35;53.97;;;35.58;;
23986;SDS011;12514;52.140;5.602;2022-08-19T07:31:07;54.95;;;35.47;;
23986;SDS011;12514;52.140;5.602;2022-08-19T07:33:34;56.10;;;37.35;;
23986;SDS011;12514;52.140;5.602;2022-08-19T07:36:02;56.10;;;34.95;;
23986;SDS011;12514;52.140;5.602;2022-08-19T07:38:29;59.47;;;36.75;;
23986;SDS011;12514;52.140;5.602;2022-08-19T07:40:56;54.15;;;36.33;;
23986;SDS011;12514;52.140;5.602;2022-08-19T07:43:22;49.58;;;32.42;;
23986;SDS011;12514;52.140;5.602;2022-08-19T07:45:51;50.40;;;32.90;;
23986;SDS011;12514;52.140;5.602;2022-08-19T07:48:21;56.53;;;33.63;;
23986;SDS011;12514;52.140;5.602;2022-08-19T07:50:54;52.97;;;34.45;;
23986;SDS011;12514;52.140;5.602;2022-08-19T07:56:44;49.38;;;31.02;;
23986;SDS011;12514;52.140;5.602;2022-08-19T07:59:09;55.75;;;33.97;;
23986;SDS011;12514;52.140;5.602;2022-08-19T08:01:35;51.67;;;32.38;;
23986;SDS011;12514;52.140;5.602;2022-08-19T08:04:01;51.42;;;32.55;;
23986;SDS011;12514;52.140;5.602;2022-08-19T08:06:45;45.42;;;31.35;;
23986;SDS011;12514;52.140;5.602;2022-08-19T08:09:38;48.92;;;31.58;;
23986;SDS011;12514;52.140;5.602;2022-08-19T08:14:53;50.88;;;34.15;;
23986;SDS011;12514;52.140;5.602;2022-08-19T08:17:21;50.30;;;32.35;;
23986;SDS011;12514;52.140;5.602;2022-08-19T08:19:49;46.30;;;32.28;;
23986;SDS011;12514;52.140;5.602;2022-08-19T08:22:17;43.60;;;30.55;;
23986;SDS011;12514;52.140;5.602;2022-08-19T08:25:04;44.42;;;30.85;;
23986;SDS011;12514;52.140;5.602;2022-08-19T08:27:40;44.10;;;28.67;;
23986;SDS011;12514;52.140;5.602;2022-08-19T08:30:07;42.83;;;26.80;;
23986;SDS011;12514;52.140;5.602;2022-08-19T08:32:44;35.28;;;25.98;;
23986;SDS011;12514;52.140;5.602;2022-08-19T08:35:12;35.95;;;25.75;;
23986;SDS011;12514;52.140;5.602;2022-08-19T08:37:39;39.13;;;26.77;;
23986;SDS011;12514;52.140;5.602;2022-08-19T08:40:05;33.92;;;24.63;;
23986;SDS011;12514;52.140;5.602;2022-08-19T08:42:50;35.97;;;26.67;;
23986;SDS011;12514;52.140;5.602;2022-08-19T08:45:25;35.50;;;25.25;;
23986;SDS011;12514;52.140;5.602;2022-08-19T08:47:51;36.47;;;24.88;;
23986;SDS011;12514;52.140;5.602;2022-08-19T08:50:32;32.08;;;23.65;;
23986;SDS011;12514;52.140;5.602;2022-08-19T08:53:01;32.42;;;24.48;;
23986;SDS011;12514;52.140;5.602;2022-08-19T08:55:30;37.50;;;25.92;;
23986;SDS011;12514;52.140;5.602;2022-08-19T09:00:38;32.90;;;23.50;;
23986;SDS011;12514;52.140;5.602;2022-08-19T09:03:06;29.40;;;22.23;;
23986;SDS011;12514;52.140;5.602;2022-08-19T09:11:00;26.77;;;21.73;;
23986;SDS011;12514;52.140;5.602;2022-08-19T09:13:32;28.33;;;21.45;;
23986;SDS011;12514;52.140;5.602;2022-08-19T09:16:15;24.30;;;19.83;;
23986;SDS011;12514;52.140;5.602;2022-08-19T09:18:46;25.42;;;19.88;;
23986;SDS011;12514;52.140;5.602;2022-08-19T09:21:20;24.67;;;19.90;;
23986;SDS011;12514;52.140;5.602;2022-08-19T09:23:48;25.42;;;18.30;;
23986;SDS011;12514;52.140;5.602;2022-08-19T09:26:15;23.17;;;18.35;;
23986;SDS011;12514;52.140;5.602;2022-08-19T09:28:43;23.60;;;19.65;;
23986;SDS011;12514;52.140;5.602;2022-08-19T09:31:10;21.92;;;18.05;;
23986;SDS011;12514;52.140;5.602;2022-08-19T09:33:38;20.30;;;16.67;;
23986;SDS011;12514;52.140;5.602;2022-08-19T09:36:07;17.77;;;15.60;;
23986;SDS011;12514;52.140;5.602;2022-08-19T09:38:35;20.90;;;17.35;;
23986;SDS011;12514;52.140;5.602;2022-08-19T09:41:13;22.75;;;17.42;;
23986;SDS011;12514;52.140;5.602;2022-08-19T09:43:40;23.05;;;19.05;;
23986;SDS011;12514;52.140;5.602;2022-08-19T09:46:09;23.25;;;18.70;;
23986;SDS011;12514;52.140;5.602;2022-08-19T09:48:35;25.92;;;19.83;;
23986;SDS011;12514;52.140;5.602;2022-08-19T09:51:12;30.42;;;20.63;;
23986;SDS011;12514;52.140;5.602;2022-08-19T09:53:40;26.58;;;19.75;;
23986;SDS011;12514;52.140;5.602;2022-08-19T09:56:07;19.92;;;17.25;;
23986;SDS011;12514;52.140;5.602;2022-08-19T09:58:34;17.40;;;15.20;;
23986;SDS011;12514;52.140;5.602;2022-08-19T10:01:01;20.88;;;16.88;;
23986;SDS011;12514;52.140;5.602;2022-08-19T10:03:28;20.42;;;16.38;;
23986;SDS011;12514;52.140;5.602;2022-08-19T10:05:55;18.30;;;16.05;;
23986;SDS011;12514;52.140;5.602;2022-08-19T10:08:23;19.48;;;14.30;;
23986;SDS011;12514;52.140;5.602;2022-08-19T10:10:50;18.83;;;14.88;;
23986;SDS011;12514;52.140;5.602;2022-08-19T10:13:18;18.02;;;15.05;;
23986;SDS011;12514;52.140;5.602;2022-08-19T10:15:50;20.55;;;16.38;;
23986;SDS011;12514;52.140;5.602;2022-08-19T10:18:16;19.60;;;15.05;;
23986;SDS011;12514;52.140;5.602;2022-08-19T10:20:44;19.48;;;14.88;;
23986;SDS011;12514;52.140;5.602;2022-08-19T10:23:11;15.77;;;14.05;;
23986;SDS011;12514;52.140;5.602;2022-08-19T10:25:37;16.98;;;14.45;;
23986;SDS011;12514;52.140;5.602;2022-08-19T10:28:02;17.23;;;14.35;;
23986;SDS011;12514;52.140;5.602;2022-08-19T10:30:29;19.33;;;15.40;;
23986;SDS011;12514;52.140;5.602;2022-08-19T10:32:55;16.27;;;14.57;;
23986;SDS011;12514;52.140;5.602;2022-08-19T10:35:20;19.77;;;14.23;;
23986;SDS011;12514;52.140;5.602;2022-08-19T10:37:46;19.25;;;14.38;;
23986;SDS011;12514;52.140;5.602;2022-08-19T10:40:12;15.43;;;12.02;;
23986;SDS011;12514;52.140;5.602;2022-08-19T10:42:37;18.58;;;14.95;;
23986;SDS011;12514;52.140;5.602;2022-08-19T10:45:03;14.35;;;12.10;;
23986;SDS011;12514;52.140;5.602;2022-08-19T10:47:31;19.23;;;14.30;;
23986;SDS011;12514;52.140;5.602;2022-08-19T10:49:57;14.88;;;13.25;;
23986;SDS011;12514;52.140;5.602;2022-08-19T10:52:42;14.85;;;13.25;;
23986;SDS011;12514;52.140;5.602;2022-08-19T10:55:10;15.48;;;13.07;;
23986;SDS011;12514;52.140;5.602;2022-08-19T10:57:55;16.85;;;13.65;;
23986;SDS011;12514;52.140;5.602;2022-08-19T11:00:22;16.48;;;14.02;;
23986;SDS011;12514;52.140;5.602;2022-08-19T11:02:49;16.35;;;12.40;;
23986;SDS011;12514;52.140;5.602;2022-08-19T11:05:15;21.85;;;12.15;;
23986;SDS011;12514;52.140;5.602;2022-08-19T11:07:42;14.73;;;13.25;;
23986;SDS011;12514;52.140;5.602;2022-08-19T11:10:10;13.60;;;12.27;;
23986;SDS011;12514;52.140;5.602;2022-08-19T11:12:38;15.10;;;12.60;;
23986;SDS011;12514;52.140;5.602;2022-08-19T11:15:08;14.88;;;13.20;;
23986;SDS011;12514;52.140;5.602;2022-08-19T11:17:36;13.38;;;12.10;;
23986;SDS011;12514;52.140;5.602;2022-08-19T11:20:09;19.92;;;15.75;;
23986;SDS011;12514;52.140;5.602;2022-08-19T11:22:39;18.73;;;14.02;;
23986;SDS011;12514;52.140;5.602;2022-08-19T11:25:06;16.85;;;13.40;;
23986;SDS011;12514;52.140;5.602;2022-08-19T11:27:32;17.05;;;12.40;;
23986;SDS011;12514;52.140;5.602;2022-08-19T11:29:58;18.77;;;15.05;;
23986;SDS011;12514;52.140;5.602;2022-08-19T11:32:24;19.90;;;16.00;;
23986;SDS011;12514;52.140;5.602;2022-08-19T11:34:50;16.60;;;14.77;;
23986;SDS011;12514;52.140;5.602;2022-08-19T11:37:15;19.08;;;16.92;;
23986;SDS011;12514;52.140;5.602;2022-08-19T11:39:41;19.45;;;17.48;;
23986;SDS011;12514;52.140;5.602;2022-08-19T11:42:06;21.90;;;18.17;;
23986;SDS011;12514;52.140;5.602;2022-08-19T11:44:51;23.02;;;18.95;;
23986;SDS011;12514;52.140;5.602;2022-08-19T11:47:17;21.40;;;18.98;;
23986;SDS011;12514;52.140;5.602;2022-08-19T11:49:43;23.90;;;19.83;;
23986;SDS011;12514;52.140;5.602;2022-08-19T11:52:10;22.67;;;20.38;;
23986;SDS011;12514;52.140;5.602;2022-08-19T11:57:58;22.17;;;19.98;;
23986;SDS011;12514;52.140;5.602;2022-08-19T12:00:23;24.33;;;19.13;;
23986;SDS011;12514;52.140;5.602;2022-08-19T12:02:49;30.13;;;20.63;;
23986;SDS011;12514;52.140;5.602;2022-08-19T12:05:14;25.23;;;20.20;;
23986;SDS011;12514;52.140;5.602;2022-08-19T12:07:40;24.20;;;20.88;;
23986;SDS011;12514;52.140;5.602;2022-08-19T12:10:07;26.98;;;22.02;;
23986;SDS011;12514;52.140;5.602;2022-08-19T12:12:33;26.75;;;23.85;;
23986;SDS011;12514;52.140;5.602;2022-08-19T12:14:59;30.70;;;24.55;;
23986;SDS011;12514;52.140;5.602;2022-08-19T12:17:25;29.98;;;22.67;;
23986;SDS011;12514;52.140;5.602;2022-08-19T12:19:51;25.42;;;21.52;;
23986;SDS011;12514;52.140;5.602;2022-08-19T12:22:17;26.60;;;21.80;;
23986;SDS011;12514;52.140;5.602;2022-08-19T12:28:05;32.67;;;22.60;;
23986;SDS011;12514;52.140;5.602;2022-08-19T12:30:30;27.83;;;23.08;;
23986;SDS011;12514;52.140;5.602;2022-08-19T12:32:56;26.60;;;21.65;;
23986;SDS011;12514;52.140;5.602;2022-08-19T12:35:22;29.58;;;21.80;;
23986;SDS011;12514;52.140;5.602;2022-08-19T12:37:47;26.70;;;22.48;;
23986;SDS011;12514;52.140;5.602;2022-08-19T12:40:14;26.85;;;23.50;;
23986;SDS011;12514;52.140;5.602;2022-08-19T12:42:41;29.50;;;21.45;;
23986;SDS011;12514;52.140;5.602;2022-08-19T12:45:10;25.40;;;20.98;;
23986;SDS011;12514;52.140;5.602;2022-08-19T12:47:37;30.50;;;23.20;;
23986;SDS011;12514;52.140;5.602;2022-08-19T12:50:04;24.75;;;21.83;;
23986;SDS011;12514;52.140;5.602;2022-08-19T12:52:34;28.30;;;22.23;;
23986;SDS011;12514;52.140;5.602;2022-08-19T12:55:02;27.42;;;21.17;;
23986;SDS011;12514;52.140;5.602;2022-08-19T12:57:30;30.70;;;22.55;;
23986;SDS011;12514;52.140;5.602;2022-08-19T12:59:58;28.40;;;22.60;;
23986;SDS011;12514;52.140;5.602;2022-08-19T13:02:35;32.30;;;23.80;;
23986;SDS011;12514;52.140;5.602;2022-08-19T13:05:01;28.73;;;24.50;;
23986;SDS011;12514;52.140;5.602;2022-08-19T13:07:27;36.75;;;26.98;;
23986;SDS011;12514;52.140;5.602;2022-08-19T13:13:15;37.00;;;27.85;;
23986;SDS011;12514;52.140;5.602;2022-08-19T13:15:41;35.47;;;27.83;;
23986;SDS011;12514;52.140;5.602;2022-08-19T13:18:08;39.35;;;29.40;;
23986;SDS011;12514;52.140;5.602;2022-08-19T13:20:35;34.65;;;28.92;;
23986;SDS011;12514;52.140;5.602;2022-08-19T13:23:02;34.47;;;28.08;;
23986;SDS011;12514;52.140;5.602;2022-08-19T13:25:29;34.05;;;29.48;;
23986;SDS011;12514;52.140;5.602;2022-08-19T13:27:54;31.95;;;26.35;;
23986;SDS011;12514;52.140;5.602;2022-08-19T13:30:20;31.40;;;26.10;;
23986;SDS011;12514;52.140;5.602;2022-08-19T13:33:05;29.30;;;25.10;;
23986;SDS011;12514;52.140;5.602;2022-08-19T13:35:38;28.90;;;25.85;;
23986;SDS011;12514;52.140;5.602;2022-08-19T13:38:06;26.90;;;23.88;;
23986;SDS011;12514;52.140;5.602;2022-08-19T13:40:32;28.45;;;23.60;;
23986;SDS011;12514;52.140;5.602;2022-08-19T13:42:58;31.00;;;24.48;;
23986;SDS011;12514;52.140;5.602;2022-08-19T13:45:26;29.40;;;24.58;;
23986;SDS011;12514;52.140;5.602;2022-08-19T13:47:54;28.50;;;22.35;;
23986;SDS011;12514;52.140;5.602;2022-08-19T13:50:22;21.75;;;19.48;;
23986;SDS011;12514;52.140;5.602;2022-08-19T13:52:50;24.00;;;21.42;;
23986;SDS011;12514;52.140;5.602;2022-08-19T13:55:17;24.45;;;21.90;;
23986;SDS011;12514;52.140;5.602;2022-08-19T13:57:43;23.75;;;21.38;;
23986;SDS011;12514;52.140;5.602;2022-08-19T14:00:10;26.80;;;23.50;;
23986;SDS011;12514;52.140;5.602;2022-08-19T14:02:38;26.02;;;23.42;;
23986;SDS011;12514;52.140;5.602;2022-08-19T14:05:05;27.50;;;22.30;;
23986;SDS011;12514;52.140;5.602;2022-08-19T14:07:33;26.20;;;23.42;;
23986;SDS011;12514;52.140;5.602;2022-08-19T14:13:21;24.77;;;22.42;;
23986;SDS011;12514;52.140;5.602;2022-08-19T14:15:48;25.15;;;22.65;;
23986;SDS011;12514;52.140;5.602;2022-08-19T14:18:22;26.42;;;23.73;;
23986;SDS011;12514;52.140;5.602;2022-08-19T14:20:49;26.67;;;23.63;;
23986;SDS011;12514;52.140;5.602;2022-08-19T14:23:16;29.92;;;24.88;;
23986;SDS011;12514;52.140;5.602;2022-08-19T14:25:41;33.90;;;27.98;;
23986;SDS011;12514;52.140;5.602;2022-08-19T14:28:07;32.63;;;26.50;;
23986;SDS011;12514;52.140;5.602;2022-08-19T14:30:39;33.97;;;27.73;;
23986;SDS011;12514;52.140;5.602;2022-08-19T14:33:05;33.75;;;27.20;;
23986;SDS011;12514;52.140;5.602;2022-08-19T14:35:32;27.70;;;24.75;;
23986;SDS011;12514;52.140;5.602;2022-08-19T14:37:59;27.60;;;24.55;;
23986;SDS011;12514;52.140;5.602;2022-08-19T14:43:50;24.83;;;22.27;;
23986;SDS011;12514;52.140;5.602;2022-08-19T14:46:19;23.60;;;21.23;;
23986;SDS011;12514;52.140;5.602;2022-08-19T14:48:46;22.58;;;20.25;;
23986;SDS011;12514;52.140;5.602;2022-08-19T14:51:13;21.25;;;19.35;;
23986;SDS011;12514;52.140;5.602;2022-08-19T14:53:39;18.92;;;17.05;;
23986;SDS011;12514;52.140;5.602;2022-08-19T14:56:12;15.60;;;14.10;;
23986;SDS011;12514;52.140;5.602;2022-08-19T14:58:40;14.70;;;13.32;;
23986;SDS011;12514;52.140;5.602;2022-08-19T15:01:07;12.73;;;11.63;;
23986;SDS011;12514;52.140;5.602;2022-08-19T15:03:33;14.93;;;13.38;;
23986;SDS011;12514;52.140;5.602;2022-08-19T15:06:00;13.43;;;12.32;;
23986;SDS011;12514;52.140;5.602;2022-08-19T15:08:37;13.73;;;12.43;;
23986;SDS011;12514;52.140;5.602;2022-08-19T15:11:07;13.00;;;11.77;;
23986;SDS011;12514;52.140;5.602;2022-08-19T15:13:39;13.68;;;12.23;;
23986;SDS011;12514;52.140;5.602;2022-08-19T15:16:05;14.02;;;12.63;;
23986;SDS011;12514;52.140;5.602;2022-08-19T15:18:31;13.93;;;12.68;;
23986;SDS011;12514;52.140;5.602;2022-08-19T15:20:57;13.07;;;12.05;;
23986;SDS011;12514;52.140;5.602;2022-08-19T15:23:24;14.55;;;13.23;;
23986;SDS011;12514;52.140;5.602;2022-08-19T15:29:11;14.40;;;13.00;;
23986;SDS011;12514;52.140;5.602;2022-08-19T15:31:39;17.13;;;14.30;;
23986;SDS011;12514;52.140;5.602;2022-08-19T15:34:05;15.95;;;14.20;;
23986;SDS011;12514;52.140;5.602;2022-08-19T15:36:31;16.92;;;14.20;;
23986;SDS011;12514;52.140;5.602;2022-08-19T15:38:57;14.82;;;13.40;;
23986;SDS011;12514;52.140;5.602;2022-08-19T15:41:24;14.75;;;13.35;;